Lake Gardens, New York
Current Conditions -  °F | °C
As of 2:51 AM on Saturday 29 Nov 2014 (Local Time) from KLGA Reporting Station
Few Clouds Few Clouds  
Wind Chill: 21°   Ceiling: Unl
Heat Index: 29°   Visibility: 10mi
Dew Point: 12°   Wind: 8mph
Humidity: 49%   Direction: 290°WNW
Pressure: 30.32"   Gusts: NA
Location:  40.7913°N, 73.7412°W
Report Text: KLGA 290751Z 29007KT 10SM FEW250 M02/M11 A3032 RMK AO2 SLP265 T10171111
Loading
Personal Weather Stations






























Interactive Weather Map New forecast layout! Learn more

10-Day Weather Forecast

Advertisements
Track Severe Weather on mobile